Terminal Aerodrome Forecast
Issued by NWS Wilmington, OH

Current Version | Previous Version | Text Only | Print | Product List | Glossary Off
Versions: 1 2 3 4 5 6 7 8 9 10 11 12 13 14 15 16 17 18 19 20 21 22 23 24 25 26 27

000
FTUS41 KILN 141136
TAFCVG
TAF
KCVG 141136Z 1412/1518 00000KT P6SM SCT035
     FM141600 12005KT P6SM FEW025 BKN200
     FM150900 14007KT 2SM -SN OVC025
     FM151200 16010KT 3SM -SN OVC025
     FM151600 19012G20KT 2SM -SN OVC025=

USA.gov is the U.S. government's official web portal to all federal, state and local government web resources and services.